Saturday, January 20, 2018, 8:27 AM EST
Back to Local

KHZY, Ashtabula County Airport

Location: Jefferson, OH, United States Lat: 41.783
Local Time: 8:27 AM EST (13:27 GMT) Lon: -80.7
Time Zone: US/Eastern Elev: 925 ft

Show me the last for .
Show Coded

Time T Td Feel RH Dir Speed Gust Alt SLP Vis Weather Sky Remarks
2018-01-20 07:53 34 22 25 60 220° 13 - 29.93 29.95 10 CLR None
2018-01-20 06:53 34 23 25 63 210° 14 - 29.91 29.93 10 CLR 6-hr Min Temp (7am): 33.1°F
6-hr Max Temp (7am): 35.1°F
2018-01-20 05:53 34 23 22 63 210° 14 24 29.89 29.91 10 CLR None
2018-01-20 04:53 34 23 25 63 210° 13 - 29.87 29.90 10 CLR None
2018-01-20 03:53 34 22 25 60 210° 14 - 29.87 29.89 10 CLR None
2018-01-20 01:53 33 20 25 58 210° 10 - 29.86 29.88 10 CLR None
2018-01-20 00:53 34 20 25 55 200° 13 - 29.84 29.87 10 CLR 6-hr Min Temp (1am): 33.1°F
6-hr Max Temp (1am): 34.0°F
2018-01-19 23:53 34 19 25 53 190° 12 - 29.84 29.86 10 CLR 24-hr Min Temp (12am): 19.9°F
24-hr Max Temp (12am): 36.0°F
2018-01-19 22:53 34 18 22 51 190° 18 24 29.86 29.89 10 CLR None
2018-01-19 21:53 34 18 23 51 190° 18 - 29.87 29.90 10 CLR None
2018-01-19 20:53 34 18 24 51 200° 16 - 29.89 29.92 10 CLR None
2018-01-19 19:53 34 18 22 51 210° 16 23 29.89 29.93 10 CLR None
2018-01-19 18:53 34 18 21 51 200° 20 28 29.91 29.94 10 CLR 6-hr Min Temp (7pm): 32.0°F
6-hr Max Temp (7pm): 36.0°F
2018-01-19 17:53 34 17 25 49 210° 14 - 29.92 29.96 10 CLR None
2018-01-19 16:53 35 17 26 47 200° 15 - 29.92 29.94 10 CLR None
2018-01-19 15:53 35 18 23 49 200° 14 23 29.91 29.93 10 CLR None
2018-01-19 14:53 34 17 23 49 210° 18 - 29.91 29.94 10 CLR None
2018-01-19 13:53 33 16 20 48 220° 17 24 29.94 29.96 10 CLR None
2018-01-19 12:53 32 16 22 51 200° 15 - 29.97 29.99 10 CLR 6-hr Min Temp (1pm): 19.9°F
6-hr Max Temp (1pm): 32.0°F
2018-01-19 11:53 29 16 19 57 200° 12 - 30.00 30.03 10 CLR None
2018-01-19 10:53 26 14 14 59 210° 16 - 30.02 30.06 10 CLR None
2018-01-19 09:53 24 13 11 61 210° 15 - 30.03 30.06 10 CLR None
2018-01-19 08:53 21 11 9 64 200° 13 - 30.02 30.05 10 CLR None

Support USWX by starting your Amazon purchase here.